sensor_id;sensor_type;location;lat;lon;timestamp;temperature;humidity
20125;DHT22;10223;50.862;4.360;2023-05-07T00:02:08;17.10;99.90
20125;DHT22;10223;50.862;4.360;2023-05-07T00:04:35;17.10;99.90
20125;DHT22;10223;50.862;4.360;2023-05-07T00:07:05;17.00;99.90
20125;DHT22;10223;50.862;4.360;2023-05-07T00:09:32;17.10;99.90
20125;DHT22;10223;50.862;4.360;2023-05-07T00:11:59;17.10;99.90
20125;DHT22;10223;50.862;4.360;2023-05-07T00:14:28;17.20;99.90
20125;DHT22;10223;50.862;4.360;2023-05-07T00:16:55;17.10;99.90
20125;DHT22;10223;50.862;4.360;2023-05-07T00:19:22;17.10;99.90
20125;DHT22;10223;50.862;4.360;2023-05-07T00:21:49;17.10;99.90
20125;DHT22;10223;50.862;4.360;2023-05-07T00:24:16;17.20;99.90
20125;DHT22;10223;50.862;4.360;2023-05-07T00:26:43;17.20;99.90
20125;DHT22;10223;50.862;4.360;2023-05-07T00:29:10;17.30;99.90
20125;DHT22;10223;50.862;4.360;2023-05-07T00:31:38;17.20;99.90
20125;DHT22;10223;50.862;4.360;2023-05-07T00:34:05;17.10;99.90
20125;DHT22;10223;50.862;4.360;2023-05-07T00:36:32;17.10;99.90
20125;DHT22;10223;50.862;4.360;2023-05-07T00:39:00;17.10;99.90
20125;DHT22;10223;50.862;4.360;2023-05-07T00:41:29;17.00;99.90
20125;DHT22;10223;50.862;4.360;2023-05-07T00:43:57;17.10;99.90
20125;DHT22;10223;50.862;4.360;2023-05-07T00:46:24;17.20;99.90
20125;DHT22;10223;50.862;4.360;2023-05-07T00:48:53;17.20;99.90
20125;DHT22;10223;50.862;4.360;2023-05-07T00:51:21;17.20;99.90
20125;DHT22;10223;50.862;4.360;2023-05-07T00:53:48;17.20;99.90
20125;DHT22;10223;50.862;4.360;2023-05-07T00:56:15;17.10;99.90
20125;DHT22;10223;50.862;4.360;2023-05-07T00:58:43;17.10;99.90
20125;DHT22;10223;50.862;4.360;2023-05-07T01:01:10;17.10;99.90
20125;DHT22;10223;50.862;4.360;2023-05-07T01:03:37;17.00;99.90
20125;DHT22;10223;50.862;4.360;2023-05-07T01:06:06;17.00;99.90
20125;DHT22;10223;50.862;4.360;2023-05-07T01:08:34;17.00;99.90
20125;DHT22;10223;50.862;4.360;2023-05-07T01:11:02;17.00;99.90
20125;DHT22;10223;50.862;4.360;2023-05-07T01:13:29;17.00;99.90
20125;DHT22;10223;50.862;4.360;2023-05-07T01:15:56;16.90;99.90
20125;DHT22;10223;50.862;4.360;2023-05-07T01:18:23;16.90;99.90
20125;DHT22;10223;50.862;4.360;2023-05-07T01:20:51;16.90;99.90
20125;DHT22;10223;50.862;4.360;2023-05-07T01:23:20;16.90;99.90
20125;DHT22;10223;50.862;4.360;2023-05-07T01:25:51;16.90;99.90
20125;DHT22;10223;50.862;4.360;2023-05-07T01:28:18;16.90;99.90
20125;DHT22;10223;50.862;4.360;2023-05-07T01:31:00;16.90;99.90
20125;DHT22;10223;50.862;4.360;2023-05-07T01:33:30;16.90;99.90
20125;DHT22;10223;50.862;4.360;2023-05-07T01:35:59;16.90;99.90
20125;DHT22;10223;50.862;4.360;2023-05-07T01:38:30;16.90;99.90
20125;DHT22;10223;50.862;4.360;2023-05-07T01:40:58;16.90;99.90
20125;DHT22;10223;50.862;4.360;2023-05-07T01:43:25;16.80;99.90
20125;DHT22;10223;50.862;4.360;2023-05-07T01:45:52;16.80;99.90
20125;DHT22;10223;50.862;4.360;2023-05-07T01:48:20;16.90;99.90
20125;DHT22;10223;50.862;4.360;2023-05-07T01:50:48;16.90;99.90
20125;DHT22;10223;50.862;4.360;2023-05-07T01:53:15;17.00;99.90
20125;DHT22;10223;50.862;4.360;2023-05-07T01:55:44;17.00;99.90
20125;DHT22;10223;50.862;4.360;2023-05-07T01:58:11;17.00;99.90
20125;DHT22;10223;50.862;4.360;2023-05-07T02:00:38;17.10;99.90
20125;DHT22;10223;50.862;4.360;2023-05-07T02:03:05;17.30;99.90
20125;DHT22;10223;50.862;4.360;2023-05-07T02:05:32;17.50;99.90
20125;DHT22;10223;50.862;4.360;2023-05-07T02:07:59;17.70;99.90
20125;DHT22;10223;50.862;4.360;2023-05-07T02:10:25;17.70;99.90
20125;DHT22;10223;50.862;4.360;2023-05-07T02:12:54;17.60;99.90
20125;DHT22;10223;50.862;4.360;2023-05-07T02:15:21;17.60;99.90
20125;DHT22;10223;50.862;4.360;2023-05-07T02:18:04;17.60;99.90
20125;DHT22;10223;50.862;4.360;2023-05-07T02:20:31;17.70;99.90
20125;DHT22;10223;50.862;4.360;2023-05-07T02:22:58;17.90;99.90
20125;DHT22;10223;50.862;4.360;2023-05-07T02:25:25;18.10;99.90
20125;DHT22;10223;50.862;4.360;2023-05-07T02:27:54;17.90;99.90
20125;DHT22;10223;50.862;4.360;2023-05-07T02:30:21;17.80;99.90
20125;DHT22;10223;50.862;4.360;2023-05-07T02:32:48;17.80;99.90
20125;DHT22;10223;50.862;4.360;2023-05-07T02:35:15;17.80;99.90
20125;DHT22;10223;50.862;4.360;2023-05-07T02:37:42;17.70;99.90
20125;DHT22;10223;50.862;4.360;2023-05-07T02:40:10;17.70;99.90
20125;DHT22;10223;50.862;4.360;2023-05-07T02:42:37;17.70;99.90
20125;DHT22;10223;50.862;4.360;2023-05-07T02:45:07;17.70;99.90
20125;DHT22;10223;50.862;4.360;2023-05-07T02:47:34;17.70;99.90
20125;DHT22;10223;50.862;4.360;2023-05-07T02:50:01;17.80;99.90
20125;DHT22;10223;50.862;4.360;2023-05-07T02:52:29;17.60;99.90
20125;DHT22;10223;50.862;4.360;2023-05-07T02:54:56;17.60;99.90
20125;DHT22;10223;50.862;4.360;2023-05-07T02:57:22;17.50;99.90
20125;DHT22;10223;50.862;4.360;2023-05-07T02:59:49;17.70;99.90
20125;DHT22;10223;50.862;4.360;2023-05-07T03:02:18;17.60;99.90
20125;DHT22;10223;50.862;4.360;2023-05-07T03:04:45;17.70;99.90
20125;DHT22;10223;50.862;4.360;2023-05-07T03:07:12;17.70;99.90
20125;DHT22;10223;50.862;4.360;2023-05-07T03:09:39;17.90;99.90
20125;DHT22;10223;50.862;4.360;2023-05-07T03:12:07;17.90;99.90
20125;DHT22;10223;50.862;4.360;2023-05-07T03:14:34;17.80;99.90
20125;DHT22;10223;50.862;4.360;2023-05-07T03:17:01;17.80;99.90
20125;DHT22;10223;50.862;4.360;2023-05-07T03:19:29;17.80;99.90
20125;DHT22;10223;50.862;4.360;2023-05-07T03:21:57;17.80;99.90
20125;DHT22;10223;50.862;4.360;2023-05-07T03:24:24;17.70;99.90
20125;DHT22;10223;50.862;4.360;2023-05-07T03:26:51;17.70;99.90
20125;DHT22;10223;50.862;4.360;2023-05-07T03:29:18;17.60;99.90
20125;DHT22;10223;50.862;4.360;2023-05-07T03:31:45;17.80;99.90
20125;DHT22;10223;50.862;4.360;2023-05-07T03:34:12;17.80;99.90
20125;DHT22;10223;50.862;4.360;2023-05-07T03:36:40;17.70;99.90
20125;DHT22;10223;50.862;4.360;2023-05-07T03:39:07;17.50;99.90
20125;DHT22;10223;50.862;4.360;2023-05-07T03:41:34;17.50;99.90
20125;DHT22;10223;50.862;4.360;2023-05-07T03:44:01;17.60;99.90
20125;DHT22;10223;50.862;4.360;2023-05-07T03:46:28;17.40;99.90
20125;DHT22;10223;50.862;4.360;2023-05-07T03:48:55;17.60;99.90
20125;DHT22;10223;50.862;4.360;2023-05-07T03:51:22;17.70;99.90
20125;DHT22;10223;50.862;4.360;2023-05-07T03:53:50;17.80;99.90
20125;DHT22;10223;50.862;4.360;2023-05-07T03:56:18;17.80;99.90
20125;DHT22;10223;50.862;4.360;2023-05-07T03:58:47;17.80;99.90
20125;DHT22;10223;50.862;4.360;2023-05-07T04:01:14;17.70;99.90
20125;DHT22;10223;50.862;4.360;2023-05-07T04:03:41;17.70;99.90
20125;DHT22;10223;50.862;4.360;2023-05-07T04:06:08;17.60;99.90
20125;DHT22;10223;50.862;4.360;2023-05-07T04:08:35;17.70;99.90
20125;DHT22;10223;50.862;4.360;2023-05-07T04:11:03;17.90;99.90
20125;DHT22;10223;50.862;4.360;2023-05-07T04:13:30;18.00;99.90
20125;DHT22;10223;50.862;4.360;2023-05-07T04:15:57;18.00;99.90
20125;DHT22;10223;50.862;4.360;2023-05-07T04:18:24;17.80;99.90
20125;DHT22;10223;50.862;4.360;2023-05-07T04:20:51;17.80;99.90
20125;DHT22;10223;50.862;4.360;2023-05-07T04:23:18;17.70;99.90
20125;DHT22;10223;50.862;4.360;2023-05-07T04:25:45;17.70;99.90
20125;DHT22;10223;50.862;4.360;2023-05-07T04:28:13;17.80;99.90
20125;DHT22;10223;50.862;4.360;2023-05-07T04:30:40;17.90;99.90
20125;DHT22;10223;50.862;4.360;2023-05-07T04:33:07;18.00;99.90
20125;DHT22;10223;50.862;4.360;2023-05-07T04:35:35;18.00;99.90
20125;DHT22;10223;50.862;4.360;2023-05-07T04:38:02;18.00;99.90
20125;DHT22;10223;50.862;4.360;2023-05-07T04:40:29;18.00;99.90
20125;DHT22;10223;50.862;4.360;2023-05-07T04:42:56;17.90;99.90
20125;DHT22;10223;50.862;4.360;2023-05-07T04:45:24;18.00;99.90
20125;DHT22;10223;50.862;4.360;2023-05-07T04:47:51;18.10;99.90
20125;DHT22;10223;50.862;4.360;2023-05-07T04:50:18;18.20;99.90
20125;DHT22;10223;50.862;4.360;2023-05-07T04:52:45;18.30;99.90
20125;DHT22;10223;50.862;4.360;2023-05-07T04:55:12;18.50;99.90
20125;DHT22;10223;50.862;4.360;2023-05-07T04:57:39;18.50;99.90
20125;DHT22;10223;50.862;4.360;2023-05-07T05:00:09;18.30;99.90
20125;DHT22;10223;50.862;4.360;2023-05-07T05:02:38;18.40;99.90
20125;DHT22;10223;50.862;4.360;2023-05-07T05:05:06;17.90;99.90
20125;DHT22;10223;50.862;4.360;2023-05-07T05:07:33;18.00;99.90
20125;DHT22;10223;50.862;4.360;2023-05-07T05:10:01;18.10;99.90
20125;DHT22;10223;50.862;4.360;2023-05-07T05:12:29;18.10;99.90
20125;DHT22;10223;50.862;4.360;2023-05-07T05:14:56;18.00;99.90
20125;DHT22;10223;50.862;4.360;2023-05-07T05:17:22;18.10;99.90
20125;DHT22;10223;50.862;4.360;2023-05-07T05:19:51;18.30;99.90
20125;DHT22;10223;50.862;4.360;2023-05-07T05:22:18;18.30;99.90
20125;DHT22;10223;50.862;4.360;2023-05-07T05:24:45;18.50;99.90
20125;DHT22;10223;50.862;4.360;2023-05-07T05:27:12;18.50;99.90
20125;DHT22;10223;50.862;4.360;2023-05-07T05:29:39;18.70;99.90
20125;DHT22;10223;50.862;4.360;2023-05-07T05:32:16;18.90;99.90
20125;DHT22;10223;50.862;4.360;2023-05-07T05:34:43;19.00;99.90
20125;DHT22;10223;50.862;4.360;2023-05-07T05:37:11;18.90;99.90
20125;DHT22;10223;50.862;4.360;2023-05-07T05:39:38;18.70;99.90
20125;DHT22;10223;50.862;4.360;2023-05-07T05:42:05;18.70;99.90
20125;DHT22;10223;50.862;4.360;2023-05-07T05:44:33;18.60;99.90
20125;DHT22;10223;50.862;4.360;2023-05-07T05:47:03;18.70;99.90
20125;DHT22;10223;50.862;4.360;2023-05-07T05:49:30;18.50;99.90
20125;DHT22;10223;50.862;4.360;2023-05-07T05:52:02;18.60;99.90
20125;DHT22;10223;50.862;4.360;2023-05-07T05:54:31;18.80;99.90
20125;DHT22;10223;50.862;4.360;2023-05-07T05:56:58;18.80;99.90
20125;DHT22;10223;50.862;4.360;2023-05-07T05:59:25;18.70;99.90
20125;DHT22;10223;50.862;4.360;2023-05-07T06:01:52;18.60;99.90
20125;DHT22;10223;50.862;4.360;2023-05-07T06:04:19;18.40;99.90
20125;DHT22;10223;50.862;4.360;2023-05-07T06:06:46;18.00;99.90
20125;DHT22;10223;50.862;4.360;2023-05-07T06:09:12;17.70;99.90
20125;DHT22;10223;50.862;4.360;2023-05-07T06:11:41;17.40;99.90
20125;DHT22;10223;50.862;4.360;2023-05-07T06:14:08;17.30;99.90
20125;DHT22;10223;50.862;4.360;2023-05-07T06:16:35;17.30;99.90
20125;DHT22;10223;50.862;4.360;2023-05-07T06:19:03;17.20;99.90
20125;DHT22;10223;50.862;4.360;2023-05-07T06:21:30;17.20;99.90
20125;DHT22;10223;50.862;4.360;2023-05-07T06:23:57;17.10;99.90
20125;DHT22;10223;50.862;4.360;2023-05-07T06:26:24;17.00;99.90
20125;DHT22;10223;50.862;4.360;2023-05-07T06:28:52;17.00;99.90
20125;DHT22;10223;50.862;4.360;2023-05-07T06:31:19;16.90;99.90
20125;DHT22;10223;50.862;4.360;2023-05-07T06:33:47;16.90;99.90
20125;DHT22;10223;50.862;4.360;2023-05-07T06:36:14;17.00;99.90
20125;DHT22;10223;50.862;4.360;2023-05-07T06:38:41;17.20;99.90
20125;DHT22;10223;50.862;4.360;2023-05-07T06:41:08;17.10;99.90
20125;DHT22;10223;50.862;4.360;2023-05-07T06:43:35;16.90;99.90
20125;DHT22;10223;50.862;4.360;2023-05-07T06:46:04;16.90;99.90
20125;DHT22;10223;50.862;4.360;2023-05-07T06:48:31;17.10;99.90
20125;DHT22;10223;50.862;4.360;2023-05-07T06:50:58;17.10;99.90
20125;DHT22;10223;50.862;4.360;2023-05-07T06:53:25;17.20;99.90
20125;DHT22;10223;50.862;4.360;2023-05-07T06:55:52;17.30;99.90
20125;DHT22;10223;50.862;4.360;2023-05-07T06:58:19;17.40;99.90
20125;DHT22;10223;50.862;4.360;2023-05-07T07:00:46;17.30;99.90
20125;DHT22;10223;50.862;4.360;2023-05-07T07:03:14;17.10;99.90
20125;DHT22;10223;50.862;4.360;2023-05-07T07:05:42;17.10;99.90
20125;DHT22;10223;50.862;4.360;2023-05-07T07:08:14;17.10;99.90
20125;DHT22;10223;50.862;4.360;2023-05-07T07:10:43;17.20;99.90
20125;DHT22;10223;50.862;4.360;2023-05-07T07:13:10;17.30;99.90
20125;DHT22;10223;50.862;4.360;2023-05-07T07:15:37;17.20;99.90
20125;DHT22;10223;50.862;4.360;2023-05-07T07:18:04;17.30;99.90
20125;DHT22;10223;50.862;4.360;2023-05-07T07:20:32;17.40;99.90
20125;DHT22;10223;50.862;4.360;2023-05-07T07:22:59;17.40;99.90
20125;DHT22;10223;50.862;4.360;2023-05-07T07:25:26;17.40;99.90
20125;DHT22;10223;50.862;4.360;2023-05-07T07:27:53;17.40;99.90
20125;DHT22;10223;50.862;4.360;2023-05-07T07:30:20;17.40;99.90
20125;DHT22;10223;50.862;4.360;2023-05-07T07:32:47;17.40;99.90
20125;DHT22;10223;50.862;4.360;2023-05-07T07:35:14;17.40;99.90
20125;DHT22;10223;50.862;4.360;2023-05-07T07:37:43;17.30;99.90
20125;DHT22;10223;50.862;4.360;2023-05-07T07:40:11;17.30;99.90
20125;DHT22;10223;50.862;4.360;2023-05-07T07:42:38;17.50;99.90
20125;DHT22;10223;50.862;4.360;2023-05-07T07:45:06;17.40;99.90
20125;DHT22;10223;50.862;4.360;2023-05-07T07:47:33;17.50;99.90
20125;DHT22;10223;50.862;4.360;2023-05-07T07:50:00;17.60;99.90
20125;DHT22;10223;50.862;4.360;2023-05-07T07:52:27;17.80;99.90
20125;DHT22;10223;50.862;4.360;2023-05-07T07:54:55;17.80;99.90
20125;DHT22;10223;50.862;4.360;2023-05-07T07:57:22;17.70;99.90
20125;DHT22;10223;50.862;4.360;2023-05-07T07:59:50;17.70;99.90
20125;DHT22;10223;50.862;4.360;2023-05-07T08:02:17;17.70;99.90
20125;DHT22;10223;50.862;4.360;2023-05-07T08:04:45;17.60;99.90
20125;DHT22;10223;50.862;4.360;2023-05-07T08:07:12;17.60;99.90
20125;DHT22;10223;50.862;4.360;2023-05-07T08:09:40;17.60;99.90
20125;DHT22;10223;50.862;4.360;2023-05-07T08:12:08;17.70;99.90
20125;DHT22;10223;50.862;4.360;2023-05-07T08:14:35;17.50;99.90
20125;DHT22;10223;50.862;4.360;2023-05-07T08:17:03;17.50;99.90
20125;DHT22;10223;50.862;4.360;2023-05-07T08:19:30;17.60;99.90
20125;DHT22;10223;50.862;4.360;2023-05-07T08:21:57;17.40;99.90
20125;DHT22;10223;50.862;4.360;2023-05-07T08:24:24;17.70;99.90
20125;DHT22;10223;50.862;4.360;2023-05-07T08:26:51;17.70;99.90
20125;DHT22;10223;50.862;4.360;2023-05-07T08:29:19;17.80;99.90
20125;DHT22;10223;50.862;4.360;2023-05-07T08:31:46;17.80;99.90
20125;DHT22;10223;50.862;4.360;2023-05-07T08:34:16;17.90;99.90
20125;DHT22;10223;50.862;4.360;2023-05-07T08:36:49;17.80;99.90
20125;DHT22;10223;50.862;4.360;2023-05-07T08:39:16;17.80;99.90
20125;DHT22;10223;50.862;4.360;2023-05-07T08:41:48;17.80;99.90
20125;DHT22;10223;50.862;4.360;2023-05-07T08:44:21;17.60;99.90
20125;DHT22;10223;50.862;4.360;2023-05-07T08:46:57;17.40;99.90
20125;DHT22;10223;50.862;4.360;2023-05-07T08:49:25;17.40;99.90
20125;DHT22;10223;50.862;4.360;2023-05-07T08:51:52;17.20;99.90
20125;DHT22;10223;50.862;4.360;2023-05-07T08:54:20;17.00;99.90
20125;DHT22;10223;50.862;4.360;2023-05-07T08:56:48;17.10;99.90
20125;DHT22;10223;50.862;4.360;2023-05-07T08:59:15;17.20;99.90
20125;DHT22;10223;50.862;4.360;2023-05-07T09:01:43;17.30;99.90
20125;DHT22;10223;50.862;4.360;2023-05-07T09:04:11;17.30;99.90
20125;DHT22;10223;50.862;4.360;2023-05-07T09:06:38;17.40;99.90
20125;DHT22;10223;50.862;4.360;2023-05-07T09:09:07;17.20;99.90
20125;DHT22;10223;50.862;4.360;2023-05-07T09:11:34;17.10;99.90
20125;DHT22;10223;50.862;4.360;2023-05-07T09:14:01;17.00;99.90
20125;DHT22;10223;50.862;4.360;2023-05-07T09:16:30;16.90;99.90
20125;DHT22;10223;50.862;4.360;2023-05-07T09:18:59;17.00;99.90
20125;DHT22;10223;50.862;4.360;2023-05-07T09:21:26;17.20;99.90
20125;DHT22;10223;50.862;4.360;2023-05-07T09:23:55;17.20;99.90
20125;DHT22;10223;50.862;4.360;2023-05-07T09:26:22;17.30;99.90
20125;DHT22;10223;50.862;4.360;2023-05-07T09:28:49;17.30;99.90
20125;DHT22;10223;50.862;4.360;2023-05-07T09:31:16;17.30;99.90
20125;DHT22;10223;50.862;4.360;2023-05-07T09:33:43;17.50;99.90
20125;DHT22;10223;50.862;4.360;2023-05-07T09:36:12;17.50;99.90
20125;DHT22;10223;50.862;4.360;2023-05-07T09:38:39;17.60;99.90
20125;DHT22;10223;50.862;4.360;2023-05-07T09:41:08;17.50;99.90
20125;DHT22;10223;50.862;4.360;2023-05-07T09:43:36;17.50;99.90
20125;DHT22;10223;50.862;4.360;2023-05-07T09:46:09;17.70;99.90
20125;DHT22;10223;50.862;4.360;2023-05-07T09:48:39;17.60;99.90
20125;DHT22;10223;50.862;4.360;2023-05-07T09:51:15;17.50;99.90
20125;DHT22;10223;50.862;4.360;2023-05-07T09:53:43;17.60;99.90
20125;DHT22;10223;50.862;4.360;2023-05-07T09:56:13;17.60;99.90
20125;DHT22;10223;50.862;4.360;2023-05-07T09:58:42;17.60;99.90
20125;DHT22;10223;50.862;4.360;2023-05-07T10:01:11;17.70;99.90
20125;DHT22;10223;50.862;4.360;2023-05-07T10:03:40;17.80;99.90
20125;DHT22;10223;50.862;4.360;2023-05-07T10:06:08;17.80;99.90
20125;DHT22;10223;50.862;4.360;2023-05-07T10:08:37;17.50;99.90
20125;DHT22;10223;50.862;4.360;2023-05-07T10:11:05;17.20;99.90
20125;DHT22;10223;50.862;4.360;2023-05-07T10:13:33;17.10;99.90
20125;DHT22;10223;50.862;4.360;2023-05-07T10:16:03;17.20;99.90
20125;DHT22;10223;50.862;4.360;2023-05-07T10:18:31;17.10;99.90
20125;DHT22;10223;50.862;4.360;2023-05-07T10:21:02;17.10;99.90
20125;DHT22;10223;50.862;4.360;2023-05-07T10:23:32;17.00;99.90
20125;DHT22;10223;50.862;4.360;2023-05-07T10:26:03;17.00;99.90
20125;DHT22;10223;50.862;4.360;2023-05-07T10:28:33;17.00;99.90
20125;DHT22;10223;50.862;4.360;2023-05-07T10:31:34;17.00;99.90
20125;DHT22;10223;50.862;4.360;2023-05-07T10:34:07;17.10;99.90
20125;DHT22;10223;50.862;4.360;2023-05-07T10:36:37;17.30;99.90
20125;DHT22;10223;50.862;4.360;2023-05-07T10:39:05;17.20;99.90
20125;DHT22;10223;50.862;4.360;2023-05-07T10:41:35;17.30;99.90
20125;DHT22;10223;50.862;4.360;2023-05-07T10:44:03;17.30;99.90
20125;DHT22;10223;50.862;4.360;2023-05-07T10:46:30;17.30;99.90
20125;DHT22;10223;50.862;4.360;2023-05-07T10:49:07;17.40;99.90
20125;DHT22;10223;50.862;4.360;2023-05-07T10:51:36;17.40;99.90
20125;DHT22;10223;50.862;4.360;2023-05-07T10:54:19;17.40;99.90
20125;DHT22;10223;50.862;4.360;2023-05-07T10:56:47;17.70;99.90
20125;DHT22;10223;50.862;4.360;2023-05-07T10:59:35;17.70;99.90
20125;DHT22;10223;50.862;4.360;2023-05-07T11:02:07;17.80;99.90
20125;DHT22;10223;50.862;4.360;2023-05-07T11:04:36;17.80;99.90
20125;DHT22;10223;50.862;4.360;2023-05-07T11:07:28;18.10;99.90
20125;DHT22;10223;50.862;4.360;2023-05-07T11:10:00;18.00;99.90
20125;DHT22;10223;50.862;4.360;2023-05-07T11:13:00;17.60;99.90
20125;DHT22;10223;50.862;4.360;2023-05-07T11:15:38;17.60;99.90
20125;DHT22;10223;50.862;4.360;2023-05-07T11:18:07;17.70;99.90
20125;DHT22;10223;50.862;4.360;2023-05-07T11:20:56;17.70;99.90
20125;DHT22;10223;50.862;4.360;2023-05-07T11:23:58;17.80;99.90
20125;DHT22;10223;50.862;4.360;2023-05-07T11:26:27;17.70;99.90
20125;DHT22;10223;50.862;4.360;2023-05-07T11:28:56;17.70;99.90
20125;DHT22;10223;50.862;4.360;2023-05-07T11:31:27;17.80;99.90
20125;DHT22;10223;50.862;4.360;2023-05-07T11:33:55;17.70;99.90
20125;DHT22;10223;50.862;4.360;2023-05-07T11:36:23;17.60;99.90
20125;DHT22;10223;50.862;4.360;2023-05-07T11:38:51;17.60;99.90
20125;DHT22;10223;50.862;4.360;2023-05-07T11:41:18;17.40;99.90
20125;DHT22;10223;50.862;4.360;2023-05-07T11:43:58;17.60;99.90
20125;DHT22;10223;50.862;4.360;2023-05-07T11:46:27;17.70;99.90
20125;DHT22;10223;50.862;4.360;2023-05-07T11:48:54;17.60;99.90
20125;DHT22;10223;50.862;4.360;2023-05-07T11:51:23;17.70;99.90
20125;DHT22;10223;50.862;4.360;2023-05-07T11:53:52;17.50;99.90
20125;DHT22;10223;50.862;4.360;2023-05-07T11:56:21;17.60;99.90
20125;DHT22;10223;50.862;4.360;2023-05-07T11:58:48;17.80;99.90
20125;DHT22;10223;50.862;4.360;2023-05-07T12:01:35;17.90;99.90
20125;DHT22;10223;50.862;4.360;2023-05-07T12:04:03;18.00;99.90
20125;DHT22;10223;50.862;4.360;2023-05-07T12:06:30;18.00;99.90
20125;DHT22;10223;50.862;4.360;2023-05-07T12:08:57;18.00;99.90
20125;DHT22;10223;50.862;4.360;2023-05-07T12:11:25;18.00;99.90
20125;DHT22;10223;50.862;4.360;2023-05-07T12:13:54;18.20;99.90
20125;DHT22;10223;50.862;4.360;2023-05-07T12:16:23;18.30;99.90
20125;DHT22;10223;50.862;4.360;2023-05-07T12:18:50;18.50;99.90
20125;DHT22;10223;50.862;4.360;2023-05-07T12:21:20;18.80;99.90
20125;DHT22;10223;50.862;4.360;2023-05-07T12:23:48;18.80;99.90
20125;DHT22;10223;50.862;4.360;2023-05-07T12:26:15;19.00;99.90
20125;DHT22;10223;50.862;4.360;2023-05-07T12:28:43;19.10;99.90
20125;DHT22;10223;50.862;4.360;2023-05-07T12:31:10;19.20;99.90
20125;DHT22;10223;50.862;4.360;2023-05-07T12:33:40;19.30;99.90
20125;DHT22;10223;50.862;4.360;2023-05-07T12:36:07;19.40;99.90
20125;DHT22;10223;50.862;4.360;2023-05-07T12:38:36;19.00;99.90
20125;DHT22;10223;50.862;4.360;2023-05-07T12:41:04;19.20;99.90
20125;DHT22;10223;50.862;4.360;2023-05-07T12:43:32;19.10;99.90
20125;DHT22;10223;50.862;4.360;2023-05-07T12:46:01;19.30;99.90
20125;DHT22;10223;50.862;4.360;2023-05-07T12:48:29;19.40;99.90
20125;DHT22;10223;50.862;4.360;2023-05-07T12:51:00;19.30;99.90
20125;DHT22;10223;50.862;4.360;2023-05-07T12:53:33;19.20;99.90
20125;DHT22;10223;50.862;4.360;2023-05-07T12:56:02;18.80;99.90
20125;DHT22;10223;50.862;4.360;2023-05-07T12:58:30;19.00;99.90
20125;DHT22;10223;50.862;4.360;2023-05-07T13:01:00;19.10;99.90
20125;DHT22;10223;50.862;4.360;2023-05-07T13:03:28;19.30;99.90
20125;DHT22;10223;50.862;4.360;2023-05-07T13:05:55;19.40;99.90
20125;DHT22;10223;50.862;4.360;2023-05-07T13:08:29;19.60;99.90
20125;DHT22;10223;50.862;4.360;2023-05-07T13:10:57;19.70;99.90
20125;DHT22;10223;50.862;4.360;2023-05-07T13:13:25;19.80;99.90
20125;DHT22;10223;50.862;4.360;2023-05-07T13:15:52;19.40;99.90
20125;DHT22;10223;50.862;4.360;2023-05-07T13:18:19;19.30;99.90
20125;DHT22;10223;50.862;4.360;2023-05-07T13:20:46;18.60;99.90
20125;DHT22;10223;50.862;4.360;2023-05-07T13:23:13;18.60;99.90
20125;DHT22;10223;50.862;4.360;2023-05-07T13:25:41;18.60;99.90
20125;DHT22;10223;50.862;4.360;2023-05-07T13:28:08;18.70;99.90
20125;DHT22;10223;50.862;4.360;2023-05-07T13:30:36;18.60;99.90
20125;DHT22;10223;50.862;4.360;2023-05-07T13:33:03;18.70;99.90
20125;DHT22;10223;50.862;4.360;2023-05-07T13:35:30;18.80;99.90
20125;DHT22;10223;50.862;4.360;2023-05-07T13:37:57;18.90;99.90
20125;DHT22;10223;50.862;4.360;2023-05-07T13:40:24;18.90;99.90
20125;DHT22;10223;50.862;4.360;2023-05-07T13:42:53;19.00;99.90
20125;DHT22;10223;50.862;4.360;2023-05-07T13:45:20;18.90;99.90
20125;DHT22;10223;50.862;4.360;2023-05-07T13:47:51;19.10;99.90
20125;DHT22;10223;50.862;4.360;2023-05-07T13:50:21;19.20;99.90
20125;DHT22;10223;50.862;4.360;2023-05-07T13:52:47;19.30;99.90
20125;DHT22;10223;50.862;4.360;2023-05-07T13:55:16;19.60;99.90
20125;DHT22;10223;50.862;4.360;2023-05-07T13:58:19;19.60;99.90
20125;DHT22;10223;50.862;4.360;2023-05-07T14:00:46;19.60;99.90
20125;DHT22;10223;50.862;4.360;2023-05-07T14:03:13;19.70;99.90
20125;DHT22;10223;50.862;4.360;2023-05-07T14:05:40;19.60;99.90
20125;DHT22;10223;50.862;4.360;2023-05-07T14:08:09;19.60;99.90
20125;DHT22;10223;50.862;4.360;2023-05-07T14:10:36;19.70;99.90
20125;DHT22;10223;50.862;4.360;2023-05-07T14:13:06;19.90;99.90
20125;DHT22;10223;50.862;4.360;2023-05-07T14:15:35;19.90;99.90
20125;DHT22;10223;50.862;4.360;2023-05-07T14:18:02;19.90;99.90
20125;DHT22;10223;50.862;4.360;2023-05-07T14:20:29;20.00;99.90
20125;DHT22;10223;50.862;4.360;2023-05-07T14:22:59;20.30;99.90
20125;DHT22;10223;50.862;4.360;2023-05-07T14:25:26;20.40;99.90
20125;DHT22;10223;50.862;4.360;2023-05-07T14:27:53;20.20;99.90
20125;DHT22;10223;50.862;4.360;2023-05-07T14:30:21;20.30;99.90
20125;DHT22;10223;50.862;4.360;2023-05-07T14:32:51;19.90;99.90
20125;DHT22;10223;50.862;4.360;2023-05-07T14:35:18;19.70;99.90
20125;DHT22;10223;50.862;4.360;2023-05-07T14:37:45;19.30;99.90
20125;DHT22;10223;50.862;4.360;2023-05-07T14:40:14;19.10;99.90
20125;DHT22;10223;50.862;4.360;2023-05-07T14:42:42;19.00;99.90
20125;DHT22;10223;50.862;4.360;2023-05-07T14:45:10;19.20;99.90
20125;DHT22;10223;50.862;4.360;2023-05-07T14:47:39;19.20;99.90
20125;DHT22;10223;50.862;4.360;2023-05-07T14:50:08;19.50;99.90
20125;DHT22;10223;50.862;4.360;2023-05-07T14:52:35;19.70;99.90
20125;DHT22;10223;50.862;4.360;2023-05-07T14:55:11;20.00;99.90
20125;DHT22;10223;50.862;4.360;2023-05-07T14:57:38;20.30;99.90
20125;DHT22;10223;50.862;4.360;2023-05-07T15:00:08;20.20;99.90
20125;DHT22;10223;50.862;4.360;2023-05-07T15:02:36;20.00;99.90
20125;DHT22;10223;50.862;4.360;2023-05-07T15:05:04;20.10;99.90
20125;DHT22;10223;50.862;4.360;2023-05-07T15:07:33;20.10;99.90
20125;DHT22;10223;50.862;4.360;2023-05-07T15:10:00;19.80;99.90
20125;DHT22;10223;50.862;4.360;2023-05-07T15:12:27;19.90;99.90
20125;DHT22;10223;50.862;4.360;2023-05-07T15:14:54;19.90;99.90
20125;DHT22;10223;50.862;4.360;2023-05-07T15:17:21;19.80;99.90
20125;DHT22;10223;50.862;4.360;2023-05-07T15:19:48;19.60;99.90
20125;DHT22;10223;50.862;4.360;2023-05-07T15:22:15;19.60;99.90
20125;DHT22;10223;50.862;4.360;2023-05-07T15:24:45;19.30;99.90
20125;DHT22;10223;50.862;4.360;2023-05-07T15:27:15;19.20;99.90
20125;DHT22;10223;50.862;4.360;2023-05-07T15:29:43;19.40;99.90
20125;DHT22;10223;50.862;4.360;2023-05-07T15:32:10;19.30;99.90
20125;DHT22;10223;50.862;4.360;2023-05-07T15:34:37;19.30;99.90
20125;DHT22;10223;50.862;4.360;2023-05-07T15:37:04;19.20;99.90
20125;DHT22;10223;50.862;4.360;2023-05-07T15:39:31;19.20;99.90